Hauptseite
METAR-TAF:

METAR-TAF

Flughäfen :

Flughafen Mauritius

Mauritius, Mauritius

Breite: 20-26S, Länge: 057-40E, Höhe: 55 m

Beobachtung

Neuester Wetterbericht von vor 14 Minuten, um 10:00 UTC
Wind 16 kt aus Ost/Südost
Temperatur 25°C
Luftfeuchtigkeit 57%
Luftdruck 1024 hPa
Sichtweite 10 km oder mehr
Durchbrochene Bewölkung in der Höhe von 1700 ft

METAR: FIMP 161000Z 12016KT 9999 BKN017 25/16 Q1024

Zeit: 14:14 (10:14 UTC)

Prognose

Neuester Wetterbericht von vor 5 Stunden und 14 Minuten, um 05:00 UTC
Gültige Prognose vom 16 um 06 UTC bis 17 um 12 UTC
Wind 13 kt aus Ost/Südost, Böen bis zu 25 kt
Sichtweite 10 km oder mehr
Aufgelockert bewölkt in der Höhe von 1700 ft
Zeitweise
vom 16 um 06 UTC bis 16 um 12 UTC
Aufgelockert bewölkt in der Höhe von 1500 ft
Durchbrochene Bewölkung in der Höhe von 5000 ft

TAF: FIMP 160500Z 1606/1712 11013G25KT 9999 SCT017 TEMPO 1606/1612 SCT015 BKN050

Wetterbeobachtungen und Prognosen von mehr als 4000 Flughäfen (METAR und TAF Bericht).

Die verfügbaren Stationen werden durch gelbe und rote Markierungen auf der Karte dargestellt.

Führen Sie die Maus auf sie, um den Namen der Station zu sehen.

Darauf klicken, um die Beobachtung von Wetterbeobachtungen und Prognosen zu sehen.

Um die Karte zu ändern : klicken Sie auf den grünen Tasten mit einem schwarzen Kreuz Zum Vergrößern, auf den grünen Button mit einem Gedankenstrich zu verkleinern, oder auf die grünen Pfeile für benachbarte Karten.


METAR-TAF: